sensor_id;sensor_type;location;lat;lon;timestamp;P1;durP1;ratioP1;P2;durP2;ratioP2
37239;SDS011;23130;48.760;9.178;2023-04-30T00:01:02;7.85;;;5.60;;
37239;SDS011;23130;48.760;9.178;2023-04-30T00:03:28;8.77;;;5.05;;
37239;SDS011;23130;48.760;9.178;2023-04-30T00:05:53;7.00;;;5.13;;
37239;SDS011;23130;48.760;9.178;2023-04-30T00:08:19;8.65;;;5.45;;
37239;SDS011;23130;48.760;9.178;2023-04-30T00:10:44;10.57;;;5.45;;
37239;SDS011;23130;48.760;9.178;2023-04-30T00:13:10;8.73;;;5.30;;
37239;SDS011;23130;48.760;9.178;2023-04-30T00:15:38;7.57;;;5.50;;
37239;SDS011;23130;48.760;9.178;2023-04-30T00:18:03;10.20;;;5.53;;
37239;SDS011;23130;48.760;9.178;2023-04-30T00:20:30;8.02;;;5.60;;
37239;SDS011;23130;48.760;9.178;2023-04-30T00:22:56;7.90;;;5.63;;
37239;SDS011;23130;48.760;9.178;2023-04-30T00:25:22;7.35;;;5.32;;
37239;SDS011;23130;48.760;9.178;2023-04-30T00:27:48;7.78;;;5.20;;
37239;SDS011;23130;48.760;9.178;2023-04-30T00:30:14;8.23;;;5.03;;
37239;SDS011;23130;48.760;9.178;2023-04-30T00:32:40;8.68;;;6.38;;
37239;SDS011;23130;48.760;9.178;2023-04-30T00:35:05;8.57;;;5.30;;
37239;SDS011;23130;48.760;9.178;2023-04-30T00:37:31;11.18;;;6.15;;
37239;SDS011;23130;48.760;9.178;2023-04-30T00:39:57;8.05;;;5.50;;
37239;SDS011;23130;48.760;9.178;2023-04-30T00:42:22;8.98;;;5.38;;
37239;SDS011;23130;48.760;9.178;2023-04-30T00:44:48;8.07;;;5.40;;
37239;SDS011;23130;48.760;9.178;2023-04-30T00:47:14;6.68;;;5.20;;
37239;SDS011;23130;48.760;9.178;2023-04-30T00:49:39;6.75;;;4.95;;
37239;SDS011;23130;48.760;9.178;2023-04-30T00:52:05;9.02;;;6.40;;
37239;SDS011;23130;48.760;9.178;2023-04-30T00:54:31;8.30;;;5.70;;
37239;SDS011;23130;48.760;9.178;2023-04-30T00:56:57;8.73;;;6.05;;
37239;SDS011;23130;48.760;9.178;2023-04-30T00:59:22;9.65;;;6.10;;
37239;SDS011;23130;48.760;9.178;2023-04-30T01:01:49;8.80;;;5.75;;
37239;SDS011;23130;48.760;9.178;2023-04-30T01:04:15;7.93;;;6.10;;
37239;SDS011;23130;48.760;9.178;2023-04-30T01:06:40;7.65;;;5.30;;
37239;SDS011;23130;48.760;9.178;2023-04-30T01:09:07;11.50;;;5.97;;
37239;SDS011;23130;48.760;9.178;2023-04-30T01:14:40;9.43;;;5.40;;
37239;SDS011;23130;48.760;9.178;2023-04-30T01:17:20;9.45;;;5.65;;
37239;SDS011;23130;48.760;9.178;2023-04-30T01:19:55;9.52;;;6.15;;
37239;SDS011;23130;48.760;9.178;2023-04-30T01:30:33;9.95;;;6.38;;
37239;SDS011;23130;48.760;9.178;2023-04-30T01:32:59;10.13;;;6.53;;
37239;SDS011;23130;48.760;9.178;2023-04-30T01:35:30;9.63;;;7.10;;
37239;SDS011;23130;48.760;9.178;2023-04-30T01:38:09;9.63;;;5.90;;
37239;SDS011;23130;48.760;9.178;2023-04-30T01:43:21;10.90;;;6.85;;
37239;SDS011;23130;48.760;9.178;2023-04-30T01:53:45;12.20;;;6.65;;
37239;SDS011;23130;48.760;9.178;2023-04-30T01:56:15;10.68;;;7.68;;
37239;SDS011;23130;48.760;9.178;2023-04-30T01:58:48;11.18;;;8.18;;
37239;SDS011;23130;48.760;9.178;2023-04-30T02:01:28;10.57;;;7.07;;
37239;SDS011;23130;48.760;9.178;2023-04-30T02:03:55;11.60;;;7.45;;
37239;SDS011;23130;48.760;9.178;2023-04-30T02:06:21;15.55;;;8.48;;
37239;SDS011;23130;48.760;9.178;2023-04-30T02:08:54;12.05;;;8.15;;
37239;SDS011;23130;48.760;9.178;2023-04-30T02:11:30;12.75;;;7.63;;
37239;SDS011;23130;48.760;9.178;2023-04-30T02:13:55;13.32;;;8.50;;
37239;SDS011;23130;48.760;9.178;2023-04-30T02:16:21;13.43;;;8.73;;
37239;SDS011;23130;48.760;9.178;2023-04-30T02:18:47;12.75;;;7.80;;
37239;SDS011;23130;48.760;9.178;2023-04-30T02:21:13;16.08;;;8.75;;
37239;SDS011;23130;48.760;9.178;2023-04-30T02:23:39;16.88;;;7.75;;
37239;SDS011;23130;48.760;9.178;2023-04-30T02:26:05;16.35;;;9.73;;
37239;SDS011;23130;48.760;9.178;2023-04-30T02:28:31;13.38;;;8.60;;
37239;SDS011;23130;48.760;9.178;2023-04-30T02:30:56;12.88;;;8.32;;
37239;SDS011;23130;48.760;9.178;2023-04-30T02:33:22;14.35;;;8.43;;
37239;SDS011;23130;48.760;9.178;2023-04-30T02:35:48;13.93;;;9.00;;
37239;SDS011;23130;48.760;9.178;2023-04-30T02:38:13;12.93;;;8.75;;
37239;SDS011;23130;48.760;9.178;2023-04-30T02:40:40;14.88;;;9.18;;
37239;SDS011;23130;48.760;9.178;2023-04-30T02:43:06;17.17;;;9.15;;
37239;SDS011;23130;48.760;9.178;2023-04-30T02:45:32;15.82;;;9.73;;
37239;SDS011;23130;48.760;9.178;2023-04-30T02:47:57;15.90;;;10.68;;
37239;SDS011;23130;48.760;9.178;2023-04-30T02:50:23;15.90;;;9.52;;
37239;SDS011;23130;48.760;9.178;2023-04-30T02:52:49;16.38;;;9.07;;
37239;SDS011;23130;48.760;9.178;2023-04-30T02:55:14;16.20;;;9.27;;
37239;SDS011;23130;48.760;9.178;2023-04-30T02:57:40;13.73;;;9.50;;
37239;SDS011;23130;48.760;9.178;2023-04-30T03:00:06;16.55;;;10.07;;
37239;SDS011;23130;48.760;9.178;2023-04-30T03:02:32;14.38;;;8.77;;
37239;SDS011;23130;48.760;9.178;2023-04-30T03:04:57;14.95;;;9.20;;
37239;SDS011;23130;48.760;9.178;2023-04-30T03:07:23;15.20;;;9.90;;
37239;SDS011;23130;48.760;9.178;2023-04-30T03:09:49;17.60;;;10.27;;
37239;SDS011;23130;48.760;9.178;2023-04-30T03:12:14;15.48;;;10.32;;
37239;SDS011;23130;48.760;9.178;2023-04-30T03:14:40;16.33;;;10.35;;
37239;SDS011;23130;48.760;9.178;2023-04-30T03:17:06;17.83;;;10.73;;
37239;SDS011;23130;48.760;9.178;2023-04-30T03:19:32;18.45;;;9.70;;
37239;SDS011;23130;48.760;9.178;2023-04-30T03:21:57;15.77;;;10.32;;
37239;SDS011;23130;48.760;9.178;2023-04-30T03:24:23;17.50;;;11.05;;
37239;SDS011;23130;48.760;9.178;2023-04-30T03:26:49;14.35;;;10.63;;
37239;SDS011;23130;48.760;9.178;2023-04-30T03:29:15;15.35;;;10.27;;
37239;SDS011;23130;48.760;9.178;2023-04-30T03:31:41;14.20;;;8.95;;
37239;SDS011;23130;48.760;9.178;2023-04-30T03:34:06;13.70;;;10.25;;
37239;SDS011;23130;48.760;9.178;2023-04-30T03:36:32;14.48;;;9.30;;
37239;SDS011;23130;48.760;9.178;2023-04-30T03:38:58;13.20;;;9.10;;
37239;SDS011;23130;48.760;9.178;2023-04-30T03:41:24;16.30;;;9.60;;
37239;SDS011;23130;48.760;9.178;2023-04-30T03:43:50;14.95;;;9.18;;
37239;SDS011;23130;48.760;9.178;2023-04-30T03:46:15;21.63;;;11.38;;
37239;SDS011;23130;48.760;9.178;2023-04-30T03:48:41;14.05;;;8.93;;
37239;SDS011;23130;48.760;9.178;2023-04-30T03:51:06;20.65;;;10.13;;
37239;SDS011;23130;48.760;9.178;2023-04-30T03:53:33;16.75;;;10.75;;
37239;SDS011;23130;48.760;9.178;2023-04-30T03:55:58;18.90;;;10.77;;
37239;SDS011;23130;48.760;9.178;2023-04-30T03:58:24;14.15;;;9.88;;
37239;SDS011;23130;48.760;9.178;2023-04-30T04:00:50;14.73;;;9.55;;
37239;SDS011;23130;48.760;9.178;2023-04-30T04:03:16;15.60;;;9.88;;
37239;SDS011;23130;48.760;9.178;2023-04-30T04:05:42;16.38;;;10.75;;
37239;SDS011;23130;48.760;9.178;2023-04-30T04:08:08;14.27;;;8.80;;
37239;SDS011;23130;48.760;9.178;2023-04-30T04:10:34;17.92;;;10.30;;
37239;SDS011;23130;48.760;9.178;2023-04-30T04:13:00;14.63;;;9.45;;
37239;SDS011;23130;48.760;9.178;2023-04-30T04:15:25;12.93;;;8.70;;
37239;SDS011;23130;48.760;9.178;2023-04-30T04:17:51;14.45;;;9.25;;
37239;SDS011;23130;48.760;9.178;2023-04-30T04:20:16;14.77;;;9.02;;
37239;SDS011;23130;48.760;9.178;2023-04-30T04:22:42;16.42;;;9.90;;
37239;SDS011;23130;48.760;9.178;2023-04-30T04:25:08;12.80;;;9.45;;
37239;SDS011;23130;48.760;9.178;2023-04-30T04:27:34;13.45;;;9.25;;
37239;SDS011;23130;48.760;9.178;2023-04-30T04:30:03;17.45;;;11.15;;
37239;SDS011;23130;48.760;9.178;2023-04-30T04:32:29;16.38;;;10.68;;
37239;SDS011;23130;48.760;9.178;2023-04-30T04:34:56;17.40;;;9.80;;
37239;SDS011;23130;48.760;9.178;2023-04-30T04:37:22;15.38;;;10.02;;
37239;SDS011;23130;48.760;9.178;2023-04-30T04:39:48;15.00;;;9.55;;
37239;SDS011;23130;48.760;9.178;2023-04-30T04:42:14;14.77;;;9.73;;
37239;SDS011;23130;48.760;9.178;2023-04-30T04:44:44;14.75;;;9.60;;
37239;SDS011;23130;48.760;9.178;2023-04-30T04:47:10;15.65;;;9.35;;
37239;SDS011;23130;48.760;9.178;2023-04-30T04:49:36;15.35;;;9.43;;
37239;SDS011;23130;48.760;9.178;2023-04-30T04:52:02;13.23;;;9.68;;
37239;SDS011;23130;48.760;9.178;2023-04-30T04:54:27;13.50;;;8.68;;
37239;SDS011;23130;48.760;9.178;2023-04-30T04:56:53;13.25;;;7.97;;
37239;SDS011;23130;48.760;9.178;2023-04-30T04:59:19;11.82;;;8.00;;
37239;SDS011;23130;48.760;9.178;2023-04-30T05:01:45;12.75;;;8.60;;
37239;SDS011;23130;48.760;9.178;2023-04-30T05:04:11;13.93;;;8.88;;
37239;SDS011;23130;48.760;9.178;2023-04-30T05:06:38;11.85;;;8.10;;
37239;SDS011;23130;48.760;9.178;2023-04-30T05:09:03;11.80;;;7.93;;
37239;SDS011;23130;48.760;9.178;2023-04-30T05:11:32;13.10;;;8.50;;
37239;SDS011;23130;48.760;9.178;2023-04-30T05:13:58;13.60;;;8.93;;
37239;SDS011;23130;48.760;9.178;2023-04-30T05:16:23;12.73;;;8.63;;
37239;SDS011;23130;48.760;9.178;2023-04-30T05:18:50;17.50;;;10.05;;
37239;SDS011;23130;48.760;9.178;2023-04-30T05:21:16;14.27;;;8.13;;
37239;SDS011;23130;48.760;9.178;2023-04-30T05:23:42;13.05;;;8.40;;
37239;SDS011;23130;48.760;9.178;2023-04-30T05:26:08;12.93;;;8.95;;
37239;SDS011;23130;48.760;9.178;2023-04-30T05:28:34;11.38;;;8.20;;
37239;SDS011;23130;48.760;9.178;2023-04-30T05:30:59;14.38;;;8.23;;
37239;SDS011;23130;48.760;9.178;2023-04-30T05:33:25;11.48;;;7.45;;
37239;SDS011;23130;48.760;9.178;2023-04-30T05:35:51;13.25;;;8.63;;
37239;SDS011;23130;48.760;9.178;2023-04-30T05:38:16;10.73;;;7.93;;
37239;SDS011;23130;48.760;9.178;2023-04-30T05:40:44;14.68;;;9.32;;
37239;SDS011;23130;48.760;9.178;2023-04-30T05:43:10;14.25;;;8.75;;
37239;SDS011;23130;48.760;9.178;2023-04-30T05:45:35;11.32;;;7.75;;
37239;SDS011;23130;48.760;9.178;2023-04-30T05:48:01;11.75;;;8.02;;
37239;SDS011;23130;48.760;9.178;2023-04-30T05:50:27;11.48;;;8.07;;
37239;SDS011;23130;48.760;9.178;2023-04-30T05:52:52;12.10;;;7.20;;
37239;SDS011;23130;48.760;9.178;2023-04-30T05:55:18;13.13;;;8.48;;
37239;SDS011;23130;48.760;9.178;2023-04-30T05:57:43;11.80;;;8.13;;
37239;SDS011;23130;48.760;9.178;2023-04-30T06:00:09;11.55;;;6.72;;
37239;SDS011;23130;48.760;9.178;2023-04-30T06:02:36;10.38;;;7.63;;
37239;SDS011;23130;48.760;9.178;2023-04-30T06:05:02;12.70;;;7.90;;
37239;SDS011;23130;48.760;9.178;2023-04-30T06:07:27;12.45;;;8.35;;
37239;SDS011;23130;48.760;9.178;2023-04-30T06:09:53;10.98;;;8.32;;
37239;SDS011;23130;48.760;9.178;2023-04-30T06:12:20;10.23;;;7.57;;
37239;SDS011;23130;48.760;9.178;2023-04-30T06:14:45;10.57;;;7.63;;
37239;SDS011;23130;48.760;9.178;2023-04-30T06:17:13;12.00;;;8.40;;
37239;SDS011;23130;48.760;9.178;2023-04-30T06:19:40;13.35;;;8.32;;
37239;SDS011;23130;48.760;9.178;2023-04-30T06:22:06;10.10;;;7.20;;
37239;SDS011;23130;48.760;9.178;2023-04-30T06:24:31;9.38;;;6.80;;
37239;SDS011;23130;48.760;9.178;2023-04-30T06:26:57;10.57;;;7.57;;
37239;SDS011;23130;48.760;9.178;2023-04-30T06:29:22;9.85;;;7.22;;
37239;SDS011;23130;48.760;9.178;2023-04-30T06:31:48;12.75;;;7.43;;
37239;SDS011;23130;48.760;9.178;2023-04-30T06:34:15;9.02;;;7.22;;
37239;SDS011;23130;48.760;9.178;2023-04-30T06:36:41;10.38;;;7.97;;
37239;SDS011;23130;48.760;9.178;2023-04-30T06:39:06;10.95;;;8.15;;
37239;SDS011;23130;48.760;9.178;2023-04-30T06:41:32;8.27;;;6.93;;
37239;SDS011;23130;48.760;9.178;2023-04-30T06:43:58;11.18;;;8.13;;
37239;SDS011;23130;48.760;9.178;2023-04-30T06:46:23;9.90;;;7.55;;
37239;SDS011;23130;48.760;9.178;2023-04-30T06:48:49;11.15;;;8.02;;
37239;SDS011;23130;48.760;9.178;2023-04-30T06:51:14;10.18;;;7.10;;
37239;SDS011;23130;48.760;9.178;2023-04-30T06:53:40;8.32;;;7.00;;
37239;SDS011;23130;48.760;9.178;2023-04-30T06:56:06;8.40;;;6.57;;
37239;SDS011;23130;48.760;9.178;2023-04-30T06:58:32;8.70;;;6.43;;
37239;SDS011;23130;48.760;9.178;2023-04-30T07:00:57;7.40;;;5.95;;
37239;SDS011;23130;48.760;9.178;2023-04-30T07:03:23;8.45;;;5.88;;
37239;SDS011;23130;48.760;9.178;2023-04-30T07:05:48;7.57;;;5.47;;
37239;SDS011;23130;48.760;9.178;2023-04-30T07:08:15;8.73;;;6.05;;
37239;SDS011;23130;48.760;9.178;2023-04-30T07:10:41;6.43;;;5.57;;
37239;SDS011;23130;48.760;9.178;2023-04-30T07:13:07;7.10;;;6.05;;
37239;SDS011;23130;48.760;9.178;2023-04-30T07:15:32;7.53;;;6.13;;
37239;SDS011;23130;48.760;9.178;2023-04-30T07:17:58;8.90;;;6.93;;
37239;SDS011;23130;48.760;9.178;2023-04-30T07:20:24;8.68;;;6.18;;
37239;SDS011;23130;48.760;9.178;2023-04-30T07:22:50;9.10;;;6.68;;
37239;SDS011;23130;48.760;9.178;2023-04-30T07:25:15;9.35;;;7.63;;
37239;SDS011;23130;48.760;9.178;2023-04-30T07:27:41;8.90;;;6.10;;
37239;SDS011;23130;48.760;9.178;2023-04-30T07:30:07;9.18;;;6.38;;
37239;SDS011;23130;48.760;9.178;2023-04-30T07:32:34;7.32;;;6.07;;
37239;SDS011;23130;48.760;9.178;2023-04-30T07:35:01;7.82;;;5.30;;
37239;SDS011;23130;48.760;9.178;2023-04-30T07:37:27;8.77;;;6.07;;
37239;SDS011;23130;48.760;9.178;2023-04-30T07:39:53;10.18;;;6.47;;
37239;SDS011;23130;48.760;9.178;2023-04-30T07:42:18;7.03;;;6.30;;
37239;SDS011;23130;48.760;9.178;2023-04-30T07:44:44;7.82;;;6.45;;
37239;SDS011;23130;48.760;9.178;2023-04-30T07:47:10;7.20;;;5.90;;
37239;SDS011;23130;48.760;9.178;2023-04-30T07:49:35;7.43;;;5.65;;
37239;SDS011;23130;48.760;9.178;2023-04-30T07:52:01;8.27;;;5.63;;
37239;SDS011;23130;48.760;9.178;2023-04-30T07:54:27;7.63;;;5.63;;
37239;SDS011;23130;48.760;9.178;2023-04-30T07:56:52;7.15;;;5.78;;
37239;SDS011;23130;48.760;9.178;2023-04-30T07:59:18;7.38;;;5.85;;
37239;SDS011;23130;48.760;9.178;2023-04-30T08:01:45;6.35;;;5.63;;
37239;SDS011;23130;48.760;9.178;2023-04-30T08:04:11;7.80;;;5.43;;
37239;SDS011;23130;48.760;9.178;2023-04-30T08:06:40;7.57;;;6.03;;
37239;SDS011;23130;48.760;9.178;2023-04-30T08:09:05;8.30;;;5.22;;
37239;SDS011;23130;48.760;9.178;2023-04-30T08:11:31;9.00;;;5.70;;
37239;SDS011;23130;48.760;9.178;2023-04-30T08:13:56;7.65;;;5.57;;
37239;SDS011;23130;48.760;9.178;2023-04-30T08:16:22;8.00;;;5.70;;
37239;SDS011;23130;48.760;9.178;2023-04-30T08:18:48;7.00;;;5.15;;
37239;SDS011;23130;48.760;9.178;2023-04-30T08:21:14;6.80;;;4.85;;
37239;SDS011;23130;48.760;9.178;2023-04-30T08:23:41;7.10;;;5.03;;
37239;SDS011;23130;48.760;9.178;2023-04-30T08:26:07;7.93;;;5.60;;
37239;SDS011;23130;48.760;9.178;2023-04-30T08:28:32;5.53;;;4.47;;
37239;SDS011;23130;48.760;9.178;2023-04-30T08:30:58;5.65;;;4.80;;
37239;SDS011;23130;48.760;9.178;2023-04-30T08:33:24;6.70;;;4.75;;
37239;SDS011;23130;48.760;9.178;2023-04-30T08:35:49;7.47;;;4.38;;
37239;SDS011;23130;48.760;9.178;2023-04-30T08:38:15;6.97;;;4.45;;
37239;SDS011;23130;48.760;9.178;2023-04-30T08:40:40;5.28;;;4.00;;
37239;SDS011;23130;48.760;9.178;2023-04-30T08:43:08;4.93;;;3.95;;
37239;SDS011;23130;48.760;9.178;2023-04-30T08:45:35;7.85;;;3.90;;
37239;SDS011;23130;48.760;9.178;2023-04-30T08:48:01;7.80;;;4.22;;
37239;SDS011;23130;48.760;9.178;2023-04-30T08:50:28;6.93;;;3.65;;
37239;SDS011;23130;48.760;9.178;2023-04-30T08:52:56;6.07;;;3.15;;
37239;SDS011;23130;48.760;9.178;2023-04-30T08:55:23;4.85;;;3.22;;
37239;SDS011;23130;48.760;9.178;2023-04-30T08:57:51;4.57;;;3.60;;
37239;SDS011;23130;48.760;9.178;2023-04-30T09:00:16;4.75;;;2.90;;
37239;SDS011;23130;48.760;9.178;2023-04-30T09:02:42;6.15;;;3.08;;
37239;SDS011;23130;48.760;9.178;2023-04-30T09:05:13;3.45;;;2.45;;
37239;SDS011;23130;48.760;9.178;2023-04-30T09:07:40;4.43;;;3.13;;
37239;SDS011;23130;48.760;9.178;2023-04-30T09:10:15;3.72;;;3.05;;
37239;SDS011;23130;48.760;9.178;2023-04-30T09:12:58;7.18;;;3.15;;
37239;SDS011;23130;48.760;9.178;2023-04-30T09:15:24;3.60;;;2.63;;
37239;SDS011;23130;48.760;9.178;2023-04-30T09:17:50;3.40;;;2.72;;
37239;SDS011;23130;48.760;9.178;2023-04-30T09:20:30;4.00;;;2.75;;
37239;SDS011;23130;48.760;9.178;2023-04-30T09:23:06;3.97;;;3.10;;
37239;SDS011;23130;48.760;9.178;2023-04-30T09:25:39;3.28;;;2.78;;
37239;SDS011;23130;48.760;9.178;2023-04-30T09:28:06;3.00;;;2.40;;
37239;SDS011;23130;48.760;9.178;2023-04-30T09:30:33;4.15;;;3.28;;
37239;SDS011;23130;48.760;9.178;2023-04-30T09:32:58;4.47;;;2.90;;
37239;SDS011;23130;48.760;9.178;2023-04-30T09:35:28;3.58;;;2.70;;
37239;SDS011;23130;48.760;9.178;2023-04-30T09:37:54;5.95;;;2.58;;
37239;SDS011;23130;48.760;9.178;2023-04-30T09:40:31;2.90;;;2.22;;
37239;SDS011;23130;48.760;9.178;2023-04-30T09:43:04;3.33;;;2.35;;
37239;SDS011;23130;48.760;9.178;2023-04-30T09:45:39;2.92;;;2.20;;
37239;SDS011;23130;48.760;9.178;2023-04-30T09:48:06;3.75;;;2.50;;
37239;SDS011;23130;48.760;9.178;2023-04-30T09:50:37;3.70;;;2.13;;
37239;SDS011;23130;48.760;9.178;2023-04-30T09:53:07;2.65;;;2.10;;
37239;SDS011;23130;48.760;9.178;2023-04-30T09:55:34;4.25;;;2.30;;
37239;SDS011;23130;48.760;9.178;2023-04-30T09:58:04;3.22;;;2.20;;
37239;SDS011;23130;48.760;9.178;2023-04-30T10:00:32;3.92;;;2.35;;
37239;SDS011;23130;48.760;9.178;2023-04-30T10:03:00;2.42;;;2.17;;
37239;SDS011;23130;48.760;9.178;2023-04-30T10:05:36;3.30;;;2.25;;
37239;SDS011;23130;48.760;9.178;2023-04-30T10:08:12;3.58;;;2.30;;
37239;SDS011;23130;48.760;9.178;2023-04-30T10:10:45;3.22;;;2.72;;
37239;SDS011;23130;48.760;9.178;2023-04-30T10:13:15;3.45;;;2.00;;
37239;SDS011;23130;48.760;9.178;2023-04-30T10:15:45;3.78;;;2.33;;
37239;SDS011;23130;48.760;9.178;2023-04-30T10:18:19;3.00;;;2.08;;
37239;SDS011;23130;48.760;9.178;2023-04-30T10:20:50;3.28;;;1.95;;
37239;SDS011;23130;48.760;9.178;2023-04-30T10:23:17;2.78;;;1.95;;
37239;SDS011;23130;48.760;9.178;2023-04-30T10:25:45;3.83;;;2.40;;
37239;SDS011;23130;48.760;9.178;2023-04-30T10:28:12;2.33;;;1.85;;
37239;SDS011;23130;48.760;9.178;2023-04-30T10:30:38;4.03;;;2.10;;
37239;SDS011;23130;48.760;9.178;2023-04-30T10:33:28;1.83;;;1.60;;
37239;SDS011;23130;48.760;9.178;2023-04-30T10:35:59;3.10;;;2.00;;
37239;SDS011;23130;48.760;9.178;2023-04-30T10:38:29;2.20;;;1.98;;
37239;SDS011;23130;48.760;9.178;2023-04-30T10:40:57;2.83;;;2.03;;
37239;SDS011;23130;48.760;9.178;2023-04-30T10:43:25;3.55;;;2.40;;
37239;SDS011;23130;48.760;9.178;2023-04-30T10:45:53;3.15;;;2.17;;
37239;SDS011;23130;48.760;9.178;2023-04-30T10:48:22;3.55;;;1.90;;
37239;SDS011;23130;48.760;9.178;2023-04-30T10:50:58;3.10;;;2.38;;
37239;SDS011;23130;48.760;9.178;2023-04-30T10:53:24;3.85;;;1.92;;
37239;SDS011;23130;48.760;9.178;2023-04-30T10:55:56;5.43;;;3.25;;
37239;SDS011;23130;48.760;9.178;2023-04-30T10:58:33;5.57;;;2.60;;
37239;SDS011;23130;48.760;9.178;2023-04-30T11:04:03;3.78;;;2.75;;
37239;SDS011;23130;48.760;9.178;2023-04-30T11:09:17;4.90;;;3.17;;
37239;SDS011;23130;48.760;9.178;2023-04-30T11:11:43;3.28;;;2.67;;
37239;SDS011;23130;48.760;9.178;2023-04-30T11:14:15;5.45;;;2.88;;
37239;SDS011;23130;48.760;9.178;2023-04-30T11:16:47;3.58;;;3.00;;
37239;SDS011;23130;48.760;9.178;2023-04-30T11:19:15;3.30;;;2.63;;
37239;SDS011;23130;48.760;9.178;2023-04-30T11:21:41;3.53;;;2.63;;
37239;SDS011;23130;48.760;9.178;2023-04-30T11:27:18;3.63;;;3.13;;
37239;SDS011;23130;48.760;9.178;2023-04-30T11:29:46;4.15;;;2.72;;
37239;SDS011;23130;48.760;9.178;2023-04-30T11:32:12;3.58;;;2.45;;
37239;SDS011;23130;48.760;9.178;2023-04-30T11:34:39;4.18;;;2.53;;
37239;SDS011;23130;48.760;9.178;2023-04-30T11:37:07;4.03;;;2.45;;
37239;SDS011;23130;48.760;9.178;2023-04-30T11:39:36;3.78;;;2.58;;
37239;SDS011;23130;48.760;9.178;2023-04-30T11:42:02;2.97;;;2.05;;
37239;SDS011;23130;48.760;9.178;2023-04-30T11:44:27;4.03;;;2.70;;
37239;SDS011;23130;48.760;9.178;2023-04-30T11:46:53;3.95;;;2.50;;
37239;SDS011;23130;48.760;9.178;2023-04-30T11:49:22;3.97;;;2.50;;
37239;SDS011;23130;48.760;9.178;2023-04-30T11:51:48;4.63;;;2.58;;
37239;SDS011;23130;48.760;9.178;2023-04-30T11:54:14;3.42;;;2.60;;
37239;SDS011;23130;48.760;9.178;2023-04-30T11:56:44;3.17;;;2.03;;
37239;SDS011;23130;48.760;9.178;2023-04-30T11:59:14;3.20;;;2.67;;
37239;SDS011;23130;48.760;9.178;2023-04-30T12:01:40;4.15;;;2.65;;
37239;SDS011;23130;48.760;9.178;2023-04-30T12:04:07;2.53;;;2.22;;
37239;SDS011;23130;48.760;9.178;2023-04-30T12:06:34;4.25;;;2.75;;
37239;SDS011;23130;48.760;9.178;2023-04-30T12:09:00;3.95;;;1.80;;
37239;SDS011;23130;48.760;9.178;2023-04-30T12:11:33;3.65;;;2.53;;
37239;SDS011;23130;48.760;9.178;2023-04-30T12:14:00;3.33;;;2.20;;
37239;SDS011;23130;48.760;9.178;2023-04-30T12:16:49;4.50;;;2.40;;
37239;SDS011;23130;48.760;9.178;2023-04-30T12:19:16;4.28;;;2.13;;
37239;SDS011;23130;48.760;9.178;2023-04-30T12:21:46;2.38;;;1.92;;
37239;SDS011;23130;48.760;9.178;2023-04-30T12:24:13;2.30;;;1.73;;
37239;SDS011;23130;48.760;9.178;2023-04-30T12:26:40;2.63;;;1.70;;
37239;SDS011;23130;48.760;9.178;2023-04-30T12:29:15;3.20;;;2.20;;
37239;SDS011;23130;48.760;9.178;2023-04-30T12:31:42;3.45;;;2.30;;
37239;SDS011;23130;48.760;9.178;2023-04-30T12:34:10;3.67;;;2.25;;
37239;SDS011;23130;48.760;9.178;2023-04-30T12:36:38;3.22;;;2.38;;
37239;SDS011;23130;48.760;9.178;2023-04-30T12:39:07;4.45;;;3.15;;
37239;SDS011;23130;48.760;9.178;2023-04-30T12:41:35;3.25;;;2.35;;
37239;SDS011;23130;48.760;9.178;2023-04-30T12:44:18;3.90;;;2.40;;
37239;SDS011;23130;48.760;9.178;2023-04-30T12:46:48;2.63;;;1.85;;
37239;SDS011;23130;48.760;9.178;2023-04-30T12:51:49;3.43;;;2.33;;
37239;SDS011;23130;48.760;9.178;2023-04-30T12:54:16;3.55;;;2.58;;
37239;SDS011;23130;48.760;9.178;2023-04-30T12:56:56;3.90;;;2.92;;
37239;SDS011;23130;48.760;9.178;2023-04-30T12:59:27;3.45;;;2.50;;
37239;SDS011;23130;48.760;9.178;2023-04-30T13:02:09;4.07;;;2.60;;
37239;SDS011;23130;48.760;9.178;2023-04-30T13:04:36;5.10;;;2.95;;
37239;SDS011;23130;48.760;9.178;2023-04-30T13:07:02;3.83;;;2.78;;
37239;SDS011;23130;48.760;9.178;2023-04-30T13:09:29;3.63;;;2.67;;
37239;SDS011;23130;48.760;9.178;2023-04-30T13:11:58;7.07;;;2.63;;
37239;SDS011;23130;48.760;9.178;2023-04-30T13:14:24;3.33;;;2.20;;
37239;SDS011;23130;48.760;9.178;2023-04-30T13:16:49;2.47;;;1.88;;
37239;SDS011;23130;48.760;9.178;2023-04-30T13:19:15;4.25;;;3.17;;
37239;SDS011;23130;48.760;9.178;2023-04-30T13:21:40;3.10;;;2.30;;
37239;SDS011;23130;48.760;9.178;2023-04-30T13:24:06;4.95;;;2.80;;
37239;SDS011;23130;48.760;9.178;2023-04-30T13:26:32;3.33;;;2.30;;
37239;SDS011;23130;48.760;9.178;2023-04-30T13:28:57;4.55;;;2.70;;
37239;SDS011;23130;48.760;9.178;2023-04-30T13:31:23;2.97;;;2.58;;
37239;SDS011;23130;48.760;9.178;2023-04-30T13:33:48;4.05;;;2.97;;
37239;SDS011;23130;48.760;9.178;2023-04-30T13:36:14;4.80;;;2.80;;
37239;SDS011;23130;48.760;9.178;2023-04-30T13:38:40;4.70;;;2.10;;
37239;SDS011;23130;48.760;9.178;2023-04-30T13:41:07;4.05;;;2.53;;
37239;SDS011;23130;48.760;9.178;2023-04-30T13:43:32;3.28;;;2.35;;
37239;SDS011;23130;48.760;9.178;2023-04-30T13:45:58;4.43;;;2.92;;
37239;SDS011;23130;48.760;9.178;2023-04-30T13:48:24;4.32;;;2.63;;
37239;SDS011;23130;48.760;9.178;2023-04-30T13:50:52;4.88;;;2.45;;
37239;SDS011;23130;48.760;9.178;2023-04-30T13:53:18;3.55;;;2.15;;
37239;SDS011;23130;48.760;9.178;2023-04-30T13:55:44;3.55;;;2.53;;
37239;SDS011;23130;48.760;9.178;2023-04-30T13:58:09;3.13;;;2.33;;
37239;SDS011;23130;48.760;9.178;2023-04-30T14:00:35;4.00;;;2.30;;
37239;SDS011;23130;48.760;9.178;2023-04-30T14:03:00;3.60;;;3.00;;
37239;SDS011;23130;48.760;9.178;2023-04-30T14:05:26;3.00;;;2.40;;
37239;SDS011;23130;48.760;9.178;2023-04-30T14:07:52;1.98;;;1.58;;
37239;SDS011;23130;48.760;9.178;2023-04-30T14:10:17;3.78;;;2.30;;
37239;SDS011;23130;48.760;9.178;2023-04-30T14:12:43;4.95;;;2.22;;
37239;SDS011;23130;48.760;9.178;2023-04-30T14:15:08;5.05;;;2.35;;
37239;SDS011;23130;48.760;9.178;2023-04-30T14:17:34;2.95;;;2.35;;
37239;SDS011;23130;48.760;9.178;2023-04-30T14:20:00;3.83;;;2.40;;
37239;SDS011;23130;48.760;9.178;2023-04-30T14:22:25;6.15;;;2.35;;
37239;SDS011;23130;48.760;9.178;2023-04-30T14:24:51;4.53;;;2.35;;
37239;SDS011;23130;48.760;9.178;2023-04-30T14:27:17;6.95;;;2.42;;
37239;SDS011;23130;48.760;9.178;2023-04-30T14:29:45;2.70;;;2.33;;
37239;SDS011;23130;48.760;9.178;2023-04-30T14:32:12;2.97;;;2.08;;
37239;SDS011;23130;48.760;9.178;2023-04-30T14:34:38;4.65;;;2.42;;
37239;SDS011;23130;48.760;9.178;2023-04-30T14:37:04;3.85;;;2.40;;
37239;SDS011;23130;48.760;9.178;2023-04-30T14:39:29;2.78;;;2.20;;
37239;SDS011;23130;48.760;9.178;2023-04-30T14:41:55;3.28;;;2.28;;
37239;SDS011;23130;48.760;9.178;2023-04-30T14:44:21;2.50;;;2.10;;
37239;SDS011;23130;48.760;9.178;2023-04-30T14:46:48;3.55;;;2.45;;
37239;SDS011;23130;48.760;9.178;2023-04-30T14:49:15;2.70;;;1.85;;
37239;SDS011;23130;48.760;9.178;2023-04-30T14:51:40;4.28;;;2.65;;
37239;SDS011;23130;48.760;9.178;2023-04-30T14:54:06;5.78;;;2.70;;
37239;SDS011;23130;48.760;9.178;2023-04-30T14:56:31;5.13;;;2.30;;
37239;SDS011;23130;48.760;9.178;2023-04-30T14:58:57;2.45;;;2.05;;
37239;SDS011;23130;48.760;9.178;2023-04-30T15:01:23;4.38;;;2.85;;
37239;SDS011;23130;48.760;9.178;2023-04-30T15:03:48;3.33;;;2.13;;
37239;SDS011;23130;48.760;9.178;2023-04-30T15:06:14;2.85;;;2.10;;
37239;SDS011;23130;48.760;9.178;2023-04-30T15:08:40;5.30;;;2.20;;
37239;SDS011;23130;48.760;9.178;2023-04-30T15:11:06;3.38;;;2.15;;
37239;SDS011;23130;48.760;9.178;2023-04-30T15:13:34;3.10;;;2.13;;
37239;SDS011;23130;48.760;9.178;2023-04-30T15:16:00;4.03;;;2.47;;